Rougemont

CMRG · Quebec, 加拿大

使用的METAR站距离机场17 NM。
罗盘
风向 的 风向 210°
风向 到 风: 10 kt, 阵阵 15 kt, 3 beaufort

添加一条跑道以查看侧风和逆风信息。

添置 跑道
0 ft 1.000 2.000 3.000 4.000 5.000
没有云
METAR CYHU 201100Z AUTO 21010G15KT 9SM CLR 18/14 A3002 RMK SLP166 DENSITY ALT 400FT

METAR Rougemont - CMRG

Rougemont是,加拿大中的未知。 该机场位于纬度45,41667和经度-73,05000。 本场的ICAO机场代码为CMRG。 机场在Montreal FIR中。

该航空气象观测是针对Montréal / Saint-Hubert Airport在2024年7月20日 07:00, 当地时间进行的。

机场观察

风向为210°,速度为10 kt。 已测得15 kt的阵风。

可见度为9 mi。

有没有云。 没有观察到天花板。

温度和风寒是18 °C。 露点为14 °C,相对湿度为78%。 海平面上的气压为30,02 inHg (QNH)。

白天

今天,太阳从05:24升起,在20:33降落。 这适用于Rougemont,世界夏令时可能有所不同。 当地时间与世界标准时间之间的时差为-4 小时。 夏令时目前正在进行中。

公司介绍

我们没有关于这个机场的公司信息。

体会

到Vliegles.nl去找飞行课程,跳伞和其他飞行体验。 浏览页面,了解Rougemont附近所有可用的活动。 你也可以使用搜索功能来寻找你所在地附近的特定飞行课程、跳伞或其他飞行体验。

乌云

- CLR 没有云

温度 & 天气

温度 18 °C
露点 14 °C
相对湿度 78%
Kp-index 1 (0-9)

评论

SLP166海平面压力为30,02 inHg (30,02 inHg)
DENSITY ALT 400FT

白天

日出
05:25
中午
13:00
日落
20:35 (13:20)

小工具

你想在你的网站上有一个关于Rougemont的当前航空天气(METAR)的小部件吗?

显示HTML代码
报告变更